createdAt,value
2024-04-17T00:00:33.181Z,2.50
2024-04-17T00:03:22.935Z,2.50
2024-04-17T00:05:50.950Z,2.60
2024-04-17T00:08:18.818Z,2.90
2024-04-17T00:10:46.934Z,2.70
2024-04-17T00:13:15.059Z,3.30
2024-04-17T00:15:42.734Z,3.50
2024-04-17T00:18:10.498Z,3.50
2024-04-17T00:20:38.453Z,3.60
2024-04-17T00:23:06.165Z,3.10
2024-04-17T00:25:33.916Z,3.40
2024-04-17T00:28:01.828Z,4.00
2024-04-17T00:30:29.848Z,3.50
2024-04-17T00:32:57.738Z,4.00
2024-04-17T00:35:25.542Z,3.50
2024-04-17T00:37:53.462Z,3.50
2024-04-17T00:40:21.626Z,3.40
2024-04-17T00:42:50.244Z,3.40
2024-04-17T00:45:17.945Z,3.00
2024-04-17T00:47:45.872Z,2.50
2024-04-17T00:50:14.492Z,3.40
2024-04-17T00:52:42.778Z,3.30
2024-04-17T00:55:11.424Z,3.40
2024-04-17T00:57:40.330Z,3.20
2024-04-17T01:00:08.733Z,3.80
2024-04-17T01:02:36.449Z,2.90
2024-04-17T01:05:04.387Z,3.20
2024-04-17T01:07:33.171Z,2.80
2024-04-17T01:10:00.914Z,2.70
2024-04-17T01:12:29.303Z,2.60
2024-04-17T01:14:56.924Z,2.20
2024-04-17T01:17:24.787Z,2.30
2024-04-17T01:19:52.879Z,2.60
2024-04-17T01:22:20.666Z,2.50
2024-04-17T01:24:48.534Z,2.60
2024-04-17T01:27:16.445Z,2.40
2024-04-17T01:29:44.544Z,2.60
2024-04-17T01:32:12.330Z,2.30
2024-04-17T01:34:40.246Z,2.50
2024-04-17T01:37:08.152Z,2.10
2024-04-17T01:39:35.901Z,2.60
2024-04-17T01:42:03.985Z,2.30
2024-04-17T01:44:31.868Z,2.70
2024-04-17T01:46:59.821Z,2.20
2024-04-17T01:49:27.799Z,2.60
2024-04-17T01:51:55.544Z,2.20
2024-04-17T01:54:23.302Z,2.10
2024-04-17T01:56:52.834Z,2.60
2024-04-17T01:59:20.701Z,2.20
2024-04-17T02:01:48.536Z,2.70
2024-04-17T02:04:16.254Z,1.90
2024-04-17T02:06:44.421Z,2.50
2024-04-17T02:09:12.195Z,2.20
2024-04-17T02:11:40.085Z,2.30
2024-04-17T02:14:07.954Z,2.10
2024-04-17T02:16:35.693Z,1.80
2024-04-17T02:19:03.575Z,2.50
2024-04-17T02:21:31.637Z,2.10
2024-04-17T02:23:59.444Z,2.00
2024-04-17T02:26:27.261Z,2.00
2024-04-17T02:28:55.103Z,2.00
2024-04-17T02:31:22.740Z,1.90
2024-04-17T02:33:50.447Z,2.30
2024-04-17T02:36:18.373Z,1.80
2024-04-17T02:38:46.135Z,1.90
2024-04-17T02:41:14.034Z,1.80
2024-04-17T02:43:41.789Z,1.80
2024-04-17T02:46:09.527Z,1.70
2024-04-17T02:48:37.494Z,2.10
2024-04-17T02:51:05.647Z,1.80
2024-04-17T02:53:33.303Z,1.40
2024-04-17T02:56:00.969Z,1.60
2024-04-17T02:58:28.885Z,1.60
2024-04-17T03:00:56.751Z,1.60
2024-04-17T03:03:24.875Z,1.30
2024-04-17T03:05:52.787Z,1.50
2024-04-17T03:08:20.442Z,1.50
2024-04-17T03:10:48.342Z,2.00
2024-04-17T03:13:16.235Z,1.70
2024-04-17T03:15:46.800Z,1.50
2024-04-17T03:18:15.267Z,1.40
2024-04-17T03:20:43.112Z,1.40
2024-04-17T03:23:11.515Z,1.70
2024-04-17T03:25:39.450Z,1.80
2024-04-17T03:28:07.350Z,1.90
2024-04-17T03:30:35.252Z,1.50
2024-04-17T03:33:03.210Z,2.00
2024-04-17T03:35:30.874Z,1.30
2024-04-17T03:37:58.786Z,1.50
2024-04-17T03:40:26.629Z,1.90
2024-04-17T03:42:54.358Z,2.00
2024-04-17T03:45:22.218Z,1.60
2024-04-17T03:47:50.681Z,1.90
2024-04-17T03:50:18.751Z,2.00
2024-04-17T03:52:46.623Z,2.60
2024-04-17T03:55:14.914Z,2.40
2024-04-17T03:57:42.743Z,2.10
2024-04-17T04:00:11.272Z,2.00
2024-04-17T04:02:39.336Z,2.30
2024-04-17T04:05:07.366Z,1.60
2024-04-17T04:07:35.369Z,1.80
2024-04-17T04:10:03.245Z,1.80
2024-04-17T04:12:31.122Z,1.90
2024-04-17T04:14:59.021Z,2.10
2024-04-17T04:17:26.852Z,2.30
2024-04-17T04:19:54.791Z,2.60
2024-04-17T04:22:23.024Z,2.50
2024-04-17T04:24:50.913Z,3.00
2024-04-17T04:27:18.683Z,2.60
2024-04-17T04:29:46.643Z,2.70
2024-04-17T04:32:14.573Z,3.30
2024-04-17T04:34:42.901Z,2.90
2024-04-17T04:37:10.731Z,3.00
2024-04-17T04:39:38.483Z,2.60
2024-04-17T04:42:07.486Z,2.70
2024-04-17T04:44:35.485Z,2.40
2024-04-17T04:47:03.733Z,2.70
2024-04-17T04:49:31.490Z,2.70
2024-04-17T04:51:59.459Z,2.60
2024-04-17T04:54:27.272Z,2.60
2024-04-17T04:56:54.976Z,4.20
2024-04-17T04:59:22.924Z,2.70
2024-04-17T05:01:50.784Z,2.70
2024-04-17T05:04:18.870Z,2.60
2024-04-17T05:06:47.492Z,2.70
2024-04-17T05:09:15.338Z,2.90
2024-04-17T05:11:43.327Z,2.70
2024-04-17T05:14:11.147Z,3.10
2024-04-17T05:16:39.090Z,3.30
2024-04-17T05:19:06.773Z,2.20
2024-04-17T05:21:34.671Z,2.50
2024-04-17T05:24:02.890Z,3.30
2024-04-17T05:26:30.958Z,2.90
2024-04-17T05:28:59.430Z,3.40
2024-04-17T05:31:27.988Z,3.60
2024-04-17T05:33:55.927Z,2.90
2024-04-17T05:36:23.648Z,2.60
2024-04-17T05:38:51.841Z,2.50
2024-04-17T05:41:19.756Z,2.60
2024-04-17T05:43:47.732Z,2.60
2024-04-17T05:46:15.457Z,2.20
2024-04-17T05:48:43.287Z,2.80
2024-04-17T05:51:11.569Z,3.10
2024-04-17T05:53:39.753Z,3.30
2024-04-17T05:56:07.959Z,4.10
2024-04-17T05:58:35.933Z,4.00
2024-04-17T06:01:04.520Z,4.90
2024-04-17T06:03:32.291Z,3.00
2024-04-17T06:06:00.092Z,5.20
2024-04-17T06:08:27.926Z,3.90
2024-04-17T06:10:55.891Z,3.10
2024-04-17T06:13:23.730Z,3.50
2024-04-17T06:15:51.440Z,3.90
2024-04-17T06:18:19.343Z,3.60
2024-04-17T06:20:47.027Z,4.00
2024-04-17T06:23:14.823Z,4.10
2024-04-17T06:25:46.291Z,4.80
2024-04-17T06:28:14.326Z,4.40
2024-04-17T06:30:42.385Z,3.00
2024-04-17T06:33:10.831Z,4.00
2024-04-17T06:35:38.591Z,3.10
2024-04-17T06:38:06.447Z,3.80
2024-04-17T06:40:34.382Z,4.40
2024-04-17T06:43:02.366Z,3.60
2024-04-17T06:45:30.351Z,4.20
2024-04-17T06:47:58.341Z,4.20
2024-04-17T06:50:26.274Z,4.40
2024-04-17T06:52:54.336Z,3.30
2024-04-17T06:55:22.149Z,2.70
2024-04-17T06:57:49.925Z,3.30
2024-04-17T07:00:17.605Z,3.70
2024-04-17T07:02:51.849Z,3.10
2024-04-17T07:05:23.244Z,3.40
2024-04-17T07:07:51.012Z,2.70
2024-04-17T07:10:19.021Z,3.20
2024-04-17T07:12:46.794Z,4.10
2024-04-17T07:15:14.761Z,3.40
2024-04-17T07:17:42.633Z,4.10
2024-04-17T07:20:10.480Z,3.30
2024-04-17T07:22:38.291Z,3.40
2024-04-17T07:25:06.122Z,3.60
2024-04-17T07:27:33.912Z,4.00
2024-04-17T07:30:01.761Z,3.60
2024-04-17T07:32:29.649Z,2.80
2024-04-17T07:34:58.968Z,3.10
2024-04-17T07:37:28.697Z,2.80
2024-04-17T07:39:56.485Z,2.70
2024-04-17T07:42:24.350Z,2.70
2024-04-17T07:44:52.077Z,2.80
2024-04-17T07:47:20.434Z,2.80
2024-04-17T07:49:48.368Z,2.80
2024-04-17T07:52:16.230Z,3.10
2024-04-17T07:54:44.086Z,3.00
2024-04-17T07:57:12.013Z,2.70
2024-04-17T07:59:40.206Z,2.70
2024-04-17T08:02:07.965Z,3.20
2024-04-17T08:04:36.011Z,2.90
2024-04-17T08:07:03.972Z,3.10
2024-04-17T08:09:31.776Z,2.20
2024-04-17T08:11:59.781Z,3.00
2024-04-17T08:14:27.654Z,2.20
2024-04-17T08:16:55.536Z,2.50
2024-04-17T08:19:23.613Z,3.70
2024-04-17T08:21:51.579Z,4.80
2024-04-17T08:24:21.130Z,2.70
2024-04-17T08:26:52.633Z,2.80
2024-04-17T08:29:20.447Z,2.70
2024-04-17T08:31:49.266Z,2.90
2024-04-17T08:34:17.224Z,2.70
2024-04-17T08:36:45.844Z,4.00
2024-04-17T08:39:13.669Z,2.70
2024-04-17T08:41:49.595Z,2.60
2024-04-17T08:44:20.860Z,2.50
2024-04-17T08:46:50.926Z,2.40
2024-04-17T08:49:20.605Z,2.70
2024-04-17T08:51:49.707Z,2.30
2024-04-17T08:54:17.683Z,2.70
2024-04-17T08:56:45.765Z,2.40
2024-04-17T08:59:13.634Z,2.90
2024-04-17T09:01:42.913Z,2.40
2024-04-17T09:04:12.302Z,2.50
2024-04-17T09:06:41.391Z,2.50
2024-04-17T09:09:11.034Z,2.50
2024-04-17T09:11:41.411Z,2.60
2024-04-17T09:14:09.449Z,2.50
2024-04-17T09:16:37.857Z,2.90
2024-04-17T09:19:08.423Z,2.60
2024-04-17T09:21:40.506Z,2.50
2024-04-17T09:24:08.928Z,2.90
2024-04-17T09:26:37.852Z,2.50
2024-04-17T09:29:05.802Z,2.50
2024-04-17T09:31:33.743Z,2.50
2024-04-17T09:34:02.366Z,1.90
2024-04-17T09:36:30.295Z,2.60
2024-04-17T09:38:58.020Z,2.50
2024-04-17T09:41:29.379Z,2.40
2024-04-17T09:43:58.360Z,2.50
2024-04-17T09:46:28.349Z,2.10
2024-04-17T09:48:58.525Z,2.60
2024-04-17T09:51:27.915Z,2.70
2024-04-17T09:54:00.370Z,2.80
2024-04-17T09:56:29.209Z,2.30
2024-04-17T09:59:06.627Z,2.10
2024-04-17T10:01:38.142Z,2.90
2024-04-17T10:04:12.297Z,2.50
2024-04-17T10:06:45.502Z,2.90
2024-04-17T10:09:16.702Z,2.40
2024-04-17T10:11:46.624Z,2.80
2024-04-17T10:14:14.633Z,2.50
2024-04-17T10:16:42.895Z,2.40
2024-04-17T10:19:11.571Z,2.40
2024-04-17T10:21:39.465Z,2.50
2024-04-17T10:24:11.791Z,2.30
2024-04-17T10:26:47.824Z,2.90
2024-04-17T10:29:23.840Z,2.80
2024-04-17T10:32:03.705Z,2.80
2024-04-17T10:34:44.171Z,3.00
2024-04-17T10:37:12.675Z,3.00
2024-04-17T10:39:42.175Z,2.70
2024-04-17T10:42:10.761Z,2.70
2024-04-17T10:44:46.590Z,3.20
2024-04-17T10:47:41.449Z,3.60
2024-04-17T10:50:10.749Z,2.90
2024-04-17T10:52:40.584Z,3.20
2024-04-17T10:55:08.743Z,2.90
2024-04-17T10:57:36.626Z,2.60
2024-04-17T11:00:05.535Z,3.10
2024-04-17T11:02:33.507Z,2.90
2024-04-17T11:05:02.728Z,3.20
2024-04-17T11:07:31.618Z,2.20
2024-04-17T11:09:59.527Z,2.60
2024-04-17T11:12:27.566Z,2.40
2024-04-17T11:15:02.058Z,3.10
2024-04-17T11:17:30.549Z,2.50
2024-04-17T11:19:58.884Z,2.20
2024-04-17T11:22:26.718Z,2.50
2024-04-17T11:24:58.633Z,2.30
2024-04-17T11:27:26.810Z,2.50
2024-04-17T11:29:54.807Z,2.50
2024-04-17T11:32:23.335Z,2.50
2024-04-17T11:34:51.192Z,2.70
2024-04-17T11:37:19.038Z,3.30
2024-04-17T11:39:49.006Z,2.20
2024-04-17T11:42:17.611Z,2.30
2024-04-17T11:44:46.252Z,2.40
2024-04-17T11:47:16.925Z,2.20
2024-04-17T11:49:45.367Z,2.50
2024-04-17T11:52:14.198Z,2.20
2024-04-17T11:54:44.512Z,2.20
2024-04-17T11:57:15.066Z,2.60
2024-04-17T11:59:49.265Z,2.30
2024-04-17T12:02:17.351Z,2.40
2024-04-17T12:04:45.905Z,2.90
2024-04-17T12:07:14.129Z,2.10
2024-04-17T12:09:48.249Z,2.40
2024-04-17T12:12:19.394Z,2.00
2024-04-17T12:14:47.192Z,2.10
2024-04-17T12:17:15.231Z,2.20
2024-04-17T12:19:43.198Z,2.40
2024-04-17T12:22:11.111Z,2.40
2024-04-17T12:24:57.497Z,2.40
2024-04-17T12:27:25.174Z,2.30
2024-04-17T12:29:53.059Z,2.40
2024-04-17T12:32:20.912Z,2.70
2024-04-17T12:34:49.112Z,2.10
2024-04-17T12:37:17.109Z,2.50
2024-04-17T12:39:44.922Z,2.50
2024-04-17T12:42:14.419Z,2.10
2024-04-17T12:44:42.750Z,2.20
2024-04-17T12:47:10.951Z,2.30
2024-04-17T12:49:39.176Z,2.60
2024-04-17T12:52:07.354Z,2.30
2024-04-17T12:54:35.262Z,2.10
2024-04-17T12:57:03.136Z,2.30
2024-04-17T12:59:33.054Z,3.10
2024-04-17T13:02:01.786Z,2.50
2024-04-17T13:04:29.945Z,2.20
2024-04-17T13:06:57.913Z,2.30
2024-04-17T13:09:25.872Z,2.50
2024-04-17T13:11:57.024Z,2.20
2024-04-17T13:14:25.723Z,1.90
2024-04-17T13:16:53.912Z,2.10
2024-04-17T13:19:21.941Z,2.40
2024-04-17T13:21:49.810Z,2.40
2024-04-17T13:24:18.705Z,2.50
2024-04-17T13:26:47.585Z,2.20
2024-04-17T13:29:15.330Z,2.40
2024-04-17T13:31:43.271Z,2.00
2024-04-17T13:34:11.203Z,2.10
2024-04-17T13:36:39.544Z,2.00
2024-04-17T13:39:08.506Z,1.80
2024-04-17T13:41:37.061Z,1.90
2024-04-17T13:44:05.279Z,2.10
2024-04-17T13:46:33.704Z,2.90
2024-04-17T13:49:01.876Z,2.00
2024-04-17T13:51:29.766Z,2.10
2024-04-17T13:53:57.943Z,2.00
2024-04-17T13:56:28.825Z,2.30
2024-04-17T13:58:58.594Z,1.90
2024-04-17T14:01:26.776Z,2.10
2024-04-17T14:03:54.536Z,2.00
2024-04-17T14:06:22.183Z,2.40
2024-04-17T14:08:49.963Z,2.30
2024-04-17T14:11:18.219Z,2.50
2024-04-17T14:13:46.101Z,1.90
2024-04-17T14:16:13.874Z,2.30
2024-04-17T14:18:41.803Z,2.10
2024-04-17T14:21:16.021Z,2.30
2024-04-17T14:23:44.951Z,1.80
2024-04-17T14:26:12.789Z,1.90
2024-04-17T14:28:40.732Z,2.20
2024-04-17T14:31:08.891Z,2.00
2024-04-17T14:33:37.655Z,1.70
2024-04-17T14:36:07.158Z,1.70
2024-04-17T14:38:38.671Z,2.10
2024-04-17T14:41:09.184Z,2.40
2024-04-17T14:43:37.329Z,1.60
2024-04-17T14:46:06.166Z,2.00
2024-04-17T14:48:35.254Z,1.80
2024-04-17T14:51:06.264Z,2.00
2024-04-17T14:53:36.578Z,1.60
2024-04-17T14:56:07.433Z,2.00
2024-04-17T14:58:40.353Z,2.20
2024-04-17T15:01:09.200Z,2.20
2024-04-17T15:03:37.761Z,1.90
2024-04-17T15:06:13.143Z,2.60
2024-04-17T15:08:42.778Z,2.00
2024-04-17T15:11:13.306Z,1.90
2024-04-17T15:13:43.394Z,2.20
2024-04-17T15:16:15.639Z,1.70
2024-04-17T15:18:43.878Z,1.60
2024-04-17T15:21:14.033Z,2.00
2024-04-17T15:23:45.996Z,1.80
2024-04-17T15:26:18.835Z,1.90
2024-04-17T15:28:48.242Z,2.00
2024-04-17T15:31:18.828Z,1.90
2024-04-17T15:33:53.436Z,1.50
2024-04-17T15:36:24.758Z,1.90
2024-04-17T15:38:57.532Z,2.30
2024-04-17T15:41:25.848Z,1.80
2024-04-17T15:43:53.852Z,2.00
2024-04-17T15:46:25.290Z,2.00
2024-04-17T15:48:53.398Z,2.00
2024-04-17T15:51:21.399Z,2.30
2024-04-17T15:53:49.237Z,2.00
2024-04-17T15:56:17.038Z,2.20
2024-04-17T15:58:45.258Z,2.30
2024-04-17T16:01:15.015Z,2.50
2024-04-17T16:03:50.195Z,2.30
2024-04-17T16:06:23.699Z,2.10
2024-04-17T16:08:52.666Z,2.30
2024-04-17T16:11:22.411Z,2.30
2024-04-17T16:13:50.609Z,2.50
2024-04-17T16:16:18.985Z,2.20
2024-04-17T16:18:46.996Z,2.00
2024-04-17T16:21:16.532Z,2.20
2024-04-17T16:23:45.280Z,1.90
2024-04-17T16:26:14.854Z,1.60
2024-04-17T16:28:43.794Z,1.70
2024-04-17T16:31:13.356Z,2.00
2024-04-17T16:33:43.833Z,1.70
2024-04-17T16:36:11.860Z,1.90
2024-04-17T16:38:40.069Z,1.80
2024-04-17T16:41:09.798Z,1.80
2024-04-17T16:43:38.647Z,1.80
2024-04-17T16:46:10.885Z,1.60
2024-04-17T16:48:40.240Z,1.80
2024-04-17T16:51:09.976Z,2.20
2024-04-17T16:53:38.632Z,2.00
2024-04-17T16:56:07.402Z,1.80
2024-04-17T16:58:39.184Z,1.60
2024-04-17T17:01:09.118Z,2.20
2024-04-17T17:03:38.344Z,2.00
2024-04-17T17:06:07.193Z,1.60
2024-04-17T17:08:35.805Z,2.20
2024-04-17T17:11:03.953Z,1.60
2024-04-17T17:13:31.694Z,1.80
2024-04-17T17:16:03.730Z,1.50
2024-04-17T17:18:32.862Z,1.90
2024-04-17T17:21:15.667Z,1.80
2024-04-17T17:23:43.531Z,1.90
2024-04-17T17:26:13.963Z,1.80
2024-04-17T17:28:43.495Z,1.80
2024-04-17T17:31:11.745Z,2.00
2024-04-17T17:33:40.416Z,1.90
2024-04-17T17:36:13.707Z,1.60
2024-04-17T17:38:41.680Z,1.50
2024-04-17T17:41:20.310Z,1.70
2024-04-17T17:43:50.387Z,1.90
2024-04-17T17:46:22.574Z,2.20
2024-04-17T17:48:51.864Z,1.70
2024-04-17T17:51:20.902Z,1.80
2024-04-17T17:53:48.891Z,2.00
2024-04-17T17:56:18.369Z,1.90
2024-04-17T17:58:48.166Z,1.90
2024-04-17T18:01:20.033Z,1.80
2024-04-17T18:03:50.686Z,1.70
2024-04-17T18:06:19.454Z,1.70
2024-04-17T18:08:47.364Z,1.60
2024-04-17T18:11:17.061Z,2.00
2024-04-17T18:13:45.776Z,1.80
2024-04-17T18:16:25.054Z,1.70
2024-04-17T18:19:00.914Z,1.60
2024-04-17T18:21:28.994Z,2.10
2024-04-17T18:23:57.425Z,1.90
2024-04-17T18:26:25.974Z,2.10
2024-04-17T18:28:54.970Z,2.10
2024-04-17T18:31:23.531Z,2.00
2024-04-17T18:33:53.299Z,2.20
2024-04-17T18:36:24.028Z,2.10
2024-04-17T18:38:52.912Z,2.30
2024-04-17T18:41:25.197Z,1.80
2024-04-17T18:43:55.890Z,2.00
2024-04-17T18:46:28.161Z,2.10
2024-04-17T18:48:57.408Z,2.20
2024-04-17T18:51:25.483Z,2.20
2024-04-17T18:53:54.169Z,2.20
2024-04-17T18:56:23.680Z,2.60
2024-04-17T18:58:51.558Z,2.90
2024-04-17T19:01:23.663Z,2.60
2024-04-17T19:03:51.723Z,2.80
2024-04-17T19:06:21.289Z,3.00
2024-04-17T19:08:50.635Z,3.60
2024-04-17T19:11:19.373Z,3.50
2024-04-17T19:13:47.355Z,3.20
2024-04-17T19:16:19.419Z,3.80
2024-04-17T19:18:55.109Z,4.20
2024-04-17T19:21:23.093Z,4.70
2024-04-17T19:23:51.619Z,5.00
2024-04-17T19:26:19.696Z,4.00
2024-04-17T19:28:47.988Z,3.90
2024-04-17T19:31:16.522Z,4.40
2024-04-17T19:33:49.944Z,5.60
2024-04-17T19:36:22.501Z,5.80
2024-04-17T19:38:54.730Z,5.60
2024-04-17T19:41:26.545Z,6.60
2024-04-17T19:43:56.725Z,6.00
2024-04-17T19:46:25.804Z,6.30
2024-04-17T19:48:53.652Z,6.70
2024-04-17T19:51:23.318Z,7.30
2024-04-17T19:53:53.016Z,6.60
2024-04-17T19:56:22.101Z,6.70
2024-04-17T19:58:52.516Z,7.20
2024-04-17T20:01:22.394Z,6.30
2024-04-17T20:03:54.617Z,6.90
2024-04-17T20:06:23.879Z,5.60
2024-04-17T20:08:52.241Z,4.60
2024-04-17T20:11:20.318Z,6.10
2024-04-17T20:13:50.708Z,5.40
2024-04-17T20:16:18.624Z,5.30
2024-04-17T20:18:46.490Z,6.50
2024-04-17T20:21:14.329Z,5.90
2024-04-17T20:23:43.579Z,6.20
2024-04-17T20:26:15.081Z,7.20
2024-04-17T20:28:52.319Z,6.90
2024-04-17T20:31:25.867Z,5.80
2024-04-17T20:33:56.196Z,7.10
2024-04-17T20:36:24.369Z,6.50
2024-04-17T20:38:52.610Z,7.80
2024-04-17T20:41:20.460Z,6.90
2024-04-17T20:43:48.187Z,6.80
2024-04-17T20:46:17.476Z,9.50
2024-04-17T20:48:49.696Z,8.50
2024-04-17T20:51:17.677Z,9.60
2024-04-17T20:53:45.894Z,7.90
2024-04-17T20:56:13.866Z,9.90
2024-04-17T20:58:41.663Z,9.80
2024-04-17T21:01:10.591Z,9.00
2024-04-17T21:03:39.622Z,10.00
2024-04-17T21:06:09.914Z,15.60
2024-04-17T21:08:39.893Z,15.90
2024-04-17T21:11:16.093Z,15.60
2024-04-17T21:13:44.441Z,15.80
2024-04-17T21:16:18.612Z,16.10
2024-04-17T21:18:48.443Z,16.40
2024-04-17T21:21:17.809Z,15.90
2024-04-17T21:23:45.753Z,15.90
2024-04-17T21:26:17.646Z,17.60
2024-04-17T21:31:14.452Z,17.00
2024-04-17T21:33:43.063Z,16.00
2024-04-17T21:36:11.459Z,17.30
2024-04-17T21:38:40.073Z,15.80
2024-04-17T21:41:08.473Z,13.30
2024-04-17T21:43:37.071Z,12.80
2024-04-17T21:46:09.774Z,14.00
2024-04-17T21:48:38.544Z,13.20
2024-04-17T21:51:07.357Z,12.80
2024-04-17T21:53:36.386Z,14.90
2024-04-17T21:56:06.533Z,14.10
2024-04-17T21:58:34.809Z,14.70
2024-04-17T22:01:07.408Z,14.20
2024-04-17T22:03:37.496Z,13.70
2024-04-17T22:06:10.781Z,14.20
2024-04-17T22:08:42.605Z,13.70
2024-04-17T22:13:39.325Z,13.20
2024-04-17T22:16:07.771Z,13.50
2024-04-17T22:18:35.611Z,13.10
2024-04-17T22:21:03.322Z,14.00
2024-04-17T22:23:33.204Z,14.50
2024-04-17T22:26:01.120Z,15.00
2024-04-17T22:28:29.028Z,16.20
2024-04-17T22:30:56.979Z,15.90
2024-04-17T22:33:24.921Z,15.40
2024-04-17T22:35:52.798Z,16.60
2024-04-17T22:38:20.549Z,14.10
2024-04-17T22:40:48.315Z,13.50
2024-04-17T22:43:16.523Z,11.70
2024-04-17T22:45:46.019Z,12.50
2024-04-17T22:48:14.208Z,13.20
2024-04-17T22:50:42.116Z,12.80
2024-04-17T22:53:09.975Z,14.20
2024-04-17T22:55:37.737Z,14.40
2024-04-17T22:58:05.565Z,14.00
2024-04-17T23:00:33.363Z,14.90
2024-04-17T23:03:01.321Z,13.90
2024-04-17T23:05:29.416Z,12.70
2024-04-17T23:07:57.773Z,13.10
2024-04-17T23:10:25.547Z,13.10
2024-04-17T23:12:53.294Z,12.50
2024-04-17T23:15:21.205Z,14.00
2024-04-17T23:17:48.948Z,13.80
2024-04-17T23:20:17.478Z,13.20
2024-04-17T23:22:45.919Z,12.90
2024-04-17T23:25:13.913Z,12.50
2024-04-17T23:27:41.916Z,13.80
2024-04-17T23:30:10.036Z,14.30
2024-04-17T23:32:38.110Z,14.60
2024-04-17T23:35:06.139Z,14.00
2024-04-17T23:37:33.936Z,12.00
2024-04-17T23:40:01.804Z,11.50
2024-04-17T23:42:29.857Z,12.10
2024-04-17T23:44:57.896Z,12.20
2024-04-17T23:47:25.865Z,11.30
2024-04-17T23:49:53.914Z,12.00
2024-04-17T23:52:21.913Z,10.90
2024-04-17T23:54:49.637Z,11.50
2024-04-17T23:57:17.542Z,11.60
2024-04-17T23:59:45.469Z,11.00
